Time;durP1;ratioP1;P1;durP2;ratioP2;P2;SDS_P1;SDS_P2;PMS_P1;PMS_P2;Temp;Humidity;BMP_temperature;BMP_pressure;BME280_temperature;BME280_humidity;BME280_pressure;Samples;Min_cycle;Max_cycle;Signal;HPM_P1;HPM_P2
2022/01/01 00:05:04;;;;;;;48.83;28.17;;;;;;;10.47;100.00;99965.97;10582106;28;20267;-66
2022/01/01 00:10:08;;;;;;;30.00;17.70;;;;;;;10.46;100.00;99978.97;10581504;28;20218;-62
2022/01/01 00:15:12;;;;;;;18.83;13.43;;;;;;;10.48;100.00;99977.19;10527520;28;20212;-61
2022/01/01 00:20:17;;;;;;;25.50;15.93;;;;;;;10.43;100.00;99979.00;10497469;28;20224;-62
2022/01/01 00:25:20;;;;;;;15.37;8.90;;;;;;;10.51;100.00;99995.31;10497343;28;20216;-68
2022/01/01 00:30:23;;;;;;;14.77;8.27;;;;;;;10.52;100.00;99997.03;10497384;28;20231;-67
2022/01/01 00:35:28;;;;;;;12.80;7.20;;;;;;;10.57;100.00;100008.19;10561451;28;20237;-66
2022/01/01 00:40:31;;;;;;;18.10;11.40;;;;;;;10.62;100.00;100006.38;10580962;28;20305;-68
2022/01/01 00:45:34;;;;;;;7.80;5.13;;;;;;;10.56;100.00;100003.88;10580993;28;20214;-64
2022/01/01 00:50:39;;;;;;;14.97;9.23;;;;;;;10.70;100.00;100020.09;10580644;28;20660;-72
2022/01/01 00:55:42;;;;;;;5.60;3.57;;;;;;;10.97;100.00;100022.25;10580697;28;20219;-66
2022/01/01 01:00:46;;;;;;;6.60;3.77;;;;;;;10.83;100.00;100038.94;10580850;28;20215;-69
2022/01/01 01:05:51;;;;;;;8.20;4.53;;;;;;;10.83;100.00;100057.09;10580335;28;20214;-67
2022/01/01 01:10:56;;;;;;;12.57;5.57;;;;;;;10.79;100.00;100077.06;10580575;28;20222;-66
2022/01/01 01:16:00;;;;;;;8.27;4.17;;;;;;;10.73;100.00;100074.56;10580428;28;20219;-68
2022/01/01 01:21:06;;;;;;;6.00;3.30;;;;;;;10.68;100.00;100080.72;10581477;28;20255;-67
2022/01/01 01:26:09;;;;;;;15.67;7.30;;;;;;;10.60;100.00;100088.59;10588878;28;20231;-67
2022/01/01 01:31:13;;;;;;;10.80;5.27;;;;;;;10.60;100.00;100074.75;10587877;28;20293;-67
2022/01/01 01:36:18;;;;;;;6.47;3.47;;;;;;;10.50;100.00;100094.78;10548268;28;20195;-62
2022/01/01 01:41:22;;;;;;;7.33;3.83;;;;;;;10.41;100.00;100100.09;10545423;28;20237;-63
2022/01/01 01:46:26;;;;;;;6.20;2.97;;;;;;;10.35;100.00;100105.41;10545189;28;20194;-63
2022/01/01 01:51:31;;;;;;;6.20;3.13;;;;;;;10.32;100.00;100108.88;10544896;28;20212;-62
2022/01/01 01:56:36;;;;;;;8.03;3.73;;;;;;;10.28;100.00;100099.44;10544874;28;20520;-62
2022/01/01 02:01:39;;;;;;;6.80;3.37;;;;;;;10.19;100.00;100106.47;10544531;28;20233;-66
2022/01/01 02:06:45;;;;;;;7.10;3.30;;;;;;;10.22;100.00;100111.59;10544586;28;20214;-64
2022/01/01 02:11:48;;;;;;;9.50;3.40;;;;;;;10.39;100.00;100105.31;10544385;28;20223;-63
2022/01/01 02:22:20;;;;;;;5.53;3.10;;;;;;;10.37;100.00;100127.81;10533959;27;20537;-65
2022/01/01 02:27:23;;;;;;;6.47;3.13;;;;;;;10.39;100.00;100131.25;10533685;28;20540;-63
2022/01/01 02:32:27;;;;;;;7.47;3.10;;;;;;;10.40;100.00;100139.91;10533380;28;20192;-64
2022/01/01 02:37:32;;;;;;;13.10;6.20;;;;;;;10.33;100.00;100140.88;10533379;28;20199;-65
2022/01/01 02:42:36;;;;;;;6.43;3.20;;;;;;;10.18;100.00;100141.06;10532633;28;20227;-65
2022/01/01 02:47:39;;;;;;;5.17;2.47;;;;;;;10.06;100.00;100154.97;10533039;28;20617;-64
2022/01/01 02:52:44;;;;;;;9.83;5.17;;;;;;;10.06;100.00;100152.38;10532753;28;20191;-62
2022/01/01 02:57:47;;;;;;;8.63;3.40;;;;;;;9.99;100.00;100153.31;10535169;28;20675;-63
2022/01/01 03:02:50;;;;;;;5.77;2.60;;;;;;;10.01;100.00;100161.13;10535242;28;20652;-63
2022/01/01 03:07:55;;;;;;;4.77;2.70;;;;;;;10.03;100.00;100167.97;10535037;28;20549;-64
2022/01/01 03:12:58;;;;;;;6.80;3.27;;;;;;;10.03;100.00;100175.75;10535006;28;20219;-64
2022/01/01 03:18:02;;;;;;;6.10;3.10;;;;;;;10.08;100.00;100188.66;10534549;28;20681;-65
2022/01/01 03:23:07;;;;;;;7.90;3.27;;;;;;;10.02;100.00;100191.34;10534619;28;20211;-68
2022/01/01 03:28:10;;;;;;;21.37;10.70;;;;;;;10.02;100.00;100194.81;10534289;28;20212;-64
2022/01/01 03:33:13;;;;;;;9.83;4.30;;;;;;;10.05;100.00;100199.94;10508861;28;20216;-62
2022/01/01 03:38:18;;;;;;;6.97;3.07;;;;;;;10.05;100.00;100199.06;10505931;28;20544;-63
2022/01/01 03:43:21;;;;;;;6.50;3.80;;;;;;;9.90;100.00;100200.09;10506705;28;20204;-63
2022/01/01 03:48:24;;;;;;;8.13;3.33;;;;;;;9.81;100.00;100209.69;10505700;28;20549;-67
2022/01/01 03:53:29;;;;;;;7.70;3.00;;;;;;;9.95;100.00;100219.06;10505397;28;20220;-62
2022/01/01 03:58:32;;;;;;;8.27;3.60;;;;;;;10.01;100.00;100237.13;10505382;28;20223;-64
2022/01/01 04:03:35;;;;;;;5.67;2.70;;;;;;;9.98;100.00;100251.88;10505042;28;20220;-67
2022/01/01 04:08:40;;;;;;;5.60;2.60;;;;;;;9.97;100.00;100257.94;10504793;28;20224;-64
2022/01/01 04:13:43;;;;;;;6.13;2.50;;;;;;;9.94;100.00;100261.41;10504764;28;20222;-68
2022/01/01 04:18:47;;;;;;;4.60;2.30;;;;;;;9.89;100.00;100262.31;10504356;28;20678;-67
2022/01/01 04:23:51;;;;;;;5.60;2.00;;;;;;;9.89;100.00;100268.38;10504677;28;20212;-63
2022/01/01 04:28:55;;;;;;;8.40;1.93;;;;;;;9.93;100.00;100269.19;10504714;28;20285;-67
2022/01/01 04:33:58;;;;;;;4.53;1.80;;;;;;;9.87;100.00;100275.28;10504044;28;20234;-63
2022/01/01 04:39:02;;;;;;;3.70;1.57;;;;;;;9.85;100.00;100277.06;10503812;28;20224;-63
2022/01/01 04:44:08;;;;;;;5.00;1.90;;;;;;;9.84;100.00;100279.63;10502851;28;20327;-65
2022/01/01 04:49:11;;;;;;;4.60;1.73;;;;;;;9.87;100.00;100280.47;10503230;28;20252;-65
2022/01/01 04:54:17;;;;;;;4.57;1.67;;;;;;;9.81;100.00;100282.25;10503058;28;20216;-63
2022/01/01 04:59:20;;;;;;;3.20;1.30;;;;;;;9.78;100.00;100298.72;10495601;28;20227;-65
2022/01/01 05:04:23;;;;;;;4.10;1.60;;;;;;;9.81;100.00;100310.78;10490057;28;20242;-64
2022/01/01 05:09:29;;;;;;;4.50;1.80;;;;;;;9.71;100.00;100301.34;10492487;28;20268;-67
2022/01/01 05:14:34;;;;;;;4.50;1.70;;;;;;;9.72;100.00;100318.59;10498759;28;20220;-64
2022/01/01 05:19:37;;;;;;;3.43;1.47;;;;;;;9.63;100.00;100339.44;10499483;28;20242;-65
2022/01/01 05:24:42;;;;;;;9.17;4.17;;;;;;;9.62;100.00;100348.91;10500527;28;20204;-65
2022/01/01 05:29:45;;;;;;;3.17;1.47;;;;;;;9.65;100.00;100335.06;10498190;28;20220;-63
2022/01/01 05:34:48;;;;;;;3.57;1.40;;;;;;;9.73;100.00;100347.13;10501708;28;20234;-63
2022/01/01 05:39:52;;;;;;;6.87;2.27;;;;;;;9.69;100.00;100349.72;10501416;28;20246;-64
2022/01/01 05:44:56;;;;;;;78.73;38.57;;;;;;;9.63;100.00;100373.94;10501021;28;20669;-63
2022/01/01 05:49:59;;;;;;;3.60;1.57;;;;;;;9.69;100.00;100376.53;10500945;28;20751;-63
2022/01/01 05:55:04;;;;;;;3.73;1.40;;;;;;;9.67;100.00;100377.38;10500944;28;20212;-65
2022/01/01 06:00:08;;;;;;;3.23;1.30;;;;;;;9.62;100.00;100390.38;10500683;28;20680;-62
2022/01/01 06:05:12;;;;;;;4.77;2.00;;;;;;;9.66;100.00;100399.88;10501027;28;20216;-65
2022/01/01 06:10:16;;;;;;;4.67;2.03;;;;;;;9.58;100.00;100390.41;10500424;28;20730;-64
2022/01/01 06:15:20;;;;;;;6.70;2.27;;;;;;;9.56;100.00;100393.00;10500267;28;20228;-62
2022/01/01 06:20:23;;;;;;;6.40;2.57;;;;;;;9.49;100.00;100396.47;10500272;28;20457;-63
2022/01/01 06:25:39;;;;;;;5.17;1.93;;;;;;;9.53;100.00;100407.69;10500354;28;20216;-63
2022/01/01 06:30:43;;;;;;;4.63;2.00;;;;;;;9.52;100.00;100409.44;10500061;28;20224;-62
2022/01/01 06:35:48;;;;;;;4.73;1.80;;;;;;;9.46;100.00;100399.09;10500382;28;20212;-64
2022/01/01 06:40:53;;;;;;;4.50;1.53;;;;;;;9.45;100.00;100428.47;10500203;28;20250;-64
2022/01/01 06:45:56;;;;;;;3.77;1.50;;;;;;;9.50;100.00;100421.53;10499846;28;20218;-61
2022/01/01 06:50:59;;;;;;;6.47;1.80;;;;;;;9.55;100.00;100430.16;10499836;28;20311;-63
2022/01/01 06:56:06;;;;;;;3.50;1.60;;;;;;;9.46;100.00;100421.56;10499933;28;20224;-64
2022/01/01 07:01:10;;;;;;;4.60;1.93;;;;;;;9.47;100.00;100434.50;10499627;28;20239;-62
2022/01/01 07:06:13;;;;;;;4.00;1.63;;;;;;;9.49;100.00;100445.69;10502541;28;20230;-62
2022/01/01 07:11:18;;;;;;;4.33;1.87;;;;;;;9.53;100.00;100447.44;10507448;28;20662;-63
2022/01/01 07:16:21;;;;;;;4.83;1.43;;;;;;;9.44;100.00;100450.03;10507212;28;20295;-64
2022/01/01 07:21:24;;;;;;;5.23;1.97;;;;;;;9.48;100.00;100467.31;10506562;28;20232;-62
2022/01/01 07:26:29;;;;;;;4.53;1.93;;;;;;;9.42;100.00;100469.94;10506869;28;20320;-66
2022/01/01 07:31:32;;;;;;;4.50;2.00;;;;;;;9.47;100.00;100473.38;10506415;28;20556;-65
2022/01/01 07:36:35;;;;;;;5.53;2.20;;;;;;;9.45;100.00;100488.06;10506268;28;20220;-65
2022/01/01 07:41:40;;;;;;;4.80;1.90;;;;;;;9.43;100.00;100468.19;10506204;28;20242;-63
2022/01/01 07:46:43;;;;;;;5.27;1.53;;;;;;;9.44;100.00;100470.75;10505847;28;20239;-63
2022/01/01 07:51:47;;;;;;;3.73;1.37;;;;;;;9.42;100.00;100474.25;10505751;28;20220;-63
2022/01/01 07:56:52;;;;;;;4.07;1.27;;;;;;;9.45;100.00;100487.19;10505557;28;20219;-64
2022/01/01 08:01:55;;;;;;;3.10;1.27;;;;;;;9.50;100.00;100490.63;10505646;28;20230;-64
2022/01/01 08:06:58;;;;;;;6.97;2.23;;;;;;;9.56;100.00;100500.97;10505271;28;20290;-63
2022/01/01 08:12:23;;;;;;;4.33;1.30;;;;;;;9.54;100.00;100500.09;10505464;28;20220;-62
2022/01/01 08:17:26;;;;;;;3.03;1.40;;;;;;;9.58;100.00;100507.00;10504503;28;20295;-63
2022/01/01 08:22:29;;;;;;;4.37;1.40;;;;;;;9.61;100.00;100505.25;10504773;28;20234;-65
2022/01/01 08:27:34;;;;;;;6.00;1.60;;;;;;;9.61;100.00;100510.44;10504378;28;20681;-66
2022/01/01 08:32:38;;;;;;;3.03;1.13;;;;;;;9.65;100.00;100514.75;10503953;28;20658;-64
2022/01/01 08:37:41;;;;;;;3.97;1.20;;;;;;;9.71;100.00;100530.28;10503832;28;20684;-67
2022/01/01 08:42:46;;;;;;;4.60;1.17;;;;;;;9.68;100.00;100529.44;10503619;28;20653;-64
2022/01/01 08:47:49;;;;;;;4.17;1.60;;;;;;;9.72;100.00;100531.13;10503451;28;20552;-62
2022/01/01 08:52:52;;;;;;;4.30;2.00;;;;;;;9.82;100.00;100535.44;10503099;28;20234;-64
2022/01/01 08:57:59;;;;;;;4.77;2.20;;;;;;;9.82;100.00;100530.25;10503047;28;20302;-62
2022/01/01 09:03:22;;;;;;;5.33;2.37;;;;;;;9.66;100.00;100531.16;10501451;28;20238;-59
2022/01/01 09:08:26;;;;;;;7.13;4.37;;;;;;;9.73;100.00;100535.44;10141504;27;10000307;-60
2022/01/01 09:13:31;;;;;;;5.90;2.97;;;;;;;9.69;100.00;100541.50;10497709;28;20483;-63
2022/01/01 09:18:34;;;;;;;9.70;3.10;;;;;;;9.71;100.00;100544.97;10499752;28;20673;-61
2022/01/01 09:23:41;;;;;;;145.80;73.43;;;;;;;9.87;100.00;100544.03;10498951;28;20235;-67
2022/01/01 09:28:46;;;;;;;7.30;3.73;;;;;;;10.09;100.00;100533.59;10497392;28;20216;-65
2022/01/01 09:33:50;;;;;;;5.27;3.10;;;;;;;10.04;100.00;100530.09;10499247;28;20231;-60
2022/01/01 09:38:54;;;;;;;5.13;2.90;;;;;;;9.82;100.00;100551.81;10498745;28;20227;-61
2022/01/01 09:43:59;;;;;;;7.17;3.63;;;;;;;9.94;100.00;100536.22;10498022;28;20668;-63
2022/01/01 09:49:02;;;;;;;7.60;4.13;;;;;;;9.98;100.00;100560.38;10496871;28;20232;-65
2022/01/01 09:54:05;;;;;;;6.10;3.80;;;;;;;10.09;100.00;100545.69;10496498;28;20219;-63
2022/01/01 09:59:14;;;;;;;6.93;4.57;;;;;;;10.16;100.00;100537.00;10496313;28;20303;-63
2022/01/01 10:04:19;;;;;;;38.30;21.87;;;;;;;10.36;100.00;100537.72;10503419;28;20219;-61
2022/01/01 10:09:30;;;;;;;7.30;4.77;;;;;;;10.35;100.00;100543.81;10539531;28;20230;-62
2022/01/01 10:14:36;;;;;;;8.63;4.30;;;;;;;10.49;100.00;100544.59;10539289;28;20223;-60
2022/01/01 10:19:40;;;;;;;5.37;3.23;;;;;;;10.42;100.00;100550.69;10538899;28;20261;-63
2022/01/01 10:30:09;;;;;;;6.20;3.67;;;;;;;10.45;100.00;100538.56;10539432;28;20306;-63
2022/01/01 10:35:16;;;;;;;8.80;3.60;;;;;;;10.57;100.00;100555.75;10538941;28;20219;-64
2022/01/01 10:40:26;;;;;;;6.30;3.20;;;;;;;10.57;100.00;100553.16;10540436;28;20237;-64
2022/01/01 10:45:33;;;;;;;41.20;21.10;;;;;;;10.65;100.00;100558.31;10547146;28;20219;-63
2022/01/01 10:50:37;;;;;;;5.53;3.87;;;;;;;10.68;100.00;100559.16;10546968;28;20310;-66
2022/01/01 10:55:45;;;;;;;5.27;3.23;;;;;;;10.69;100.00;100573.84;10546390;28;20231;-68
2022/01/01 11:00:51;;;;;;;5.37;3.20;;;;;;;10.67;100.00;100578.19;10546268;28;20227;-62
2022/01/01 11:06:05;;;;;;;5.37;3.10;;;;;;;10.65;100.00;100587.72;10525527;28;20254;-65
2022/01/01 11:11:10;;;;;;;6.10;3.50;;;;;;;10.54;100.00;100588.66;10503966;28;20690;-64
2022/01/01 11:16:19;;;;;;;5.27;2.83;;;;;;;10.52;100.00;100606.84;10503643;28;20220;-66
2022/01/01 11:21:23;;;;;;;5.43;2.53;;;;;;;10.54;100.00;100607.69;10503414;28;20236;-64
2022/01/01 11:26:28;;;;;;;4.60;2.67;;;;;;;10.50;100.00;100611.16;10503772;28;20653;-63
2022/01/01 11:31:33;;;;;;;3.87;1.93;;;;;;;10.42;100.00;100607.75;10503368;28;20228;-63
2022/01/01 11:36:36;;;;;;;13.43;4.43;;;;;;;10.42;100.00;100599.97;10502999;28;20549;-61
2022/01/01 11:41:41;;;;;;;4.13;1.90;;;;;;;10.46;100.00;100606.84;10502883;28;20819;-63
2022/01/01 11:47:02;;;;;;;2.97;1.30;;;;;;;10.45;100.00;100620.72;10502749;28;20198;-63
2022/01/01 11:52:06;;;;;;;3.77;1.63;;;;;;;10.40;100.00;100645.81;10500879;28;20219;-66
2022/01/01 11:57:17;;;;;;;3.37;1.50;;;;;;;10.41;100.00;100639.75;10502200;28;20323;-66
2022/01/01 12:02:36;;;;;;;5.90;1.57;;;;;;;10.47;100.00;100648.38;10502148;28;20235;-64
2022/01/01 12:07:46;;;;;;;7.67;2.17;;;;;;;10.52;100.00;100663.94;10537069;28;20292;-64
2022/01/01 12:12:52;;;;;;;3.60;1.30;;;;;;;10.51;100.00;100666.53;10543479;28;20219;-64
2022/01/01 12:17:58;;;;;;;3.27;1.20;;;;;;;10.63;100.00;100679.44;10543012;28;20630;-63
2022/01/01 12:23:04;;;;;;;6.90;1.43;;;;;;;10.48;100.00;100678.66;10543325;28;20246;-61
2022/01/01 12:28:10;;;;;;;3.30;1.30;;;;;;;10.47;100.00;100686.44;10542871;28;20211;-62
2022/01/01 12:33:26;;;;;;;4.40;1.60;;;;;;;10.54;100.00;100690.75;10542634;28;20256;-64
2022/01/01 12:38:33;;;;;;;3.77;1.57;;;;;;;10.72;100.00;100695.81;10542448;28;20322;-61
2022/01/01 12:43:48;;;;;;;4.53;1.43;;;;;;;10.58;100.00;100694.19;10542370;28;20233;-66
2022/01/01 12:48:54;;;;;;;9.37;2.33;;;;;;;10.42;100.00;100699.41;10541927;28;20229;-62
2022/01/01 12:53:59;;;;;;;4.20;1.50;;;;;;;10.32;100.00;100699.47;10517144;28;20248;-64
2022/01/01 12:59:06;;;;;;;6.47;2.90;;;;;;;10.50;100.00;100720.16;10497980;28;20571;-63
2022/01/01 13:04:13;;;;;;;4.83;2.10;;;;;;;10.55;100.00;100726.19;10497884;28;20221;-63
2022/01/01 13:09:18;;;;;;;4.27;1.50;;;;;;;10.34;100.00;100739.25;10497447;28;20219;-67
2022/01/01 13:14:22;;;;;;;10.57;2.37;;;;;;;10.11;100.00;100754.00;10498351;28;20677;-62
2022/01/01 13:19:27;;;;;;;3.73;1.40;;;;;;;10.09;100.00;100773.91;10497842;28;20236;-62
2022/01/01 13:24:32;;;;;;;10.10;1.87;;;;;;;9.99;100.00;100800.69;10497632;28;20257;-64
2022/01/01 13:29:37;;;;;;;5.40;1.70;;;;;;;9.90;97.99;100801.53;10498459;28;20219;-65
2022/01/01 13:34:49;;;;;;;55.00;32.57;;;;;;;9.97;96.91;100811.06;10498429;28;20200;-67
2022/01/01 13:39:54;;;;;;;5.50;1.63;;;;;;;9.92;93.46;100824.88;10498363;28;20223;-63
2022/01/01 13:45:03;;;;;;;3.23;1.13;;;;;;;9.77;93.89;100832.63;10491247;28;20212;-66
2022/01/01 13:50:16;;;;;;;5.27;1.20;;;;;;;9.70;93.54;100841.28;10495563;28;20184;-65
2022/01/01 13:55:25;;;;;;;8.73;1.73;;;;;;;9.61;94.05;100849.88;10495363;28;20286;-65
2022/01/01 14:00:30;;;;;;;4.57;1.53;;;;;;;9.50;94.70;100856.78;10497627;28;21728;-62
2022/01/01 14:05:35;;;;;;;48.90;21.53;;;;;;;9.39;96.41;100870.59;10497456;28;20230;-64
2022/01/01 14:10:38;;;;;;;6.50;2.27;;;;;;;9.41;96.18;100880.06;10502704;28;20187;-66
2022/01/01 14:15:42;;;;;;;5.13;1.80;;;;;;;9.40;96.05;100891.31;10539099;28;20179;-62
2022/01/01 14:20:50;;;;;;;6.83;1.70;;;;;;;9.38;95.96;100902.50;10538790;28;20629;-64
2022/01/01 14:25:56;;;;;;;6.80;1.90;;;;;;;9.35;95.97;100905.97;10538927;28;20249;-61
2022/01/01 14:31:01;;;;;;;31.23;16.70;;;;;;;9.55;94.17;100913.78;10539482;28;20203;-66
2022/01/01 14:36:08;;;;;;;7.07;1.90;;;;;;;9.45;94.50;100914.63;10538735;28;20542;-63
2022/01/01 14:41:12;;;;;;;5.37;1.50;;;;;;;9.36;95.32;100925.84;10507127;28;20279;-61
2022/01/01 14:46:18;;;;;;;4.00;1.40;;;;;;;9.24;95.04;100938.72;10493373;28;20258;-66
2022/01/01 14:51:28;;;;;;;9.77;2.13;;;;;;;9.18;96.31;100949.06;10492795;28;20260;-62
2022/01/01 14:56:42;;;;;;;5.80;1.80;;;;;;;9.09;97.54;100956.78;10496765;28;20273;-64
2022/01/01 15:01:49;;;;;;;6.03;1.80;;;;;;;9.03;97.99;100967.97;10496440;28;20245;-64
2022/01/01 15:06:54;;;;;;;9.83;2.30;;;;;;;9.05;98.29;100966.25;10525040;28;20899;-66
2022/01/01 15:11:58;;;;;;;12.27;3.90;;;;;;;8.96;99.05;100978.28;10538075;28;20259;-61
2022/01/01 15:17:05;;;;;;;7.43;2.27;;;;;;;8.83;100.00;100992.00;10537999;28;20539;-62
2022/01/01 15:22:16;;;;;;;8.37;2.13;;;;;;;8.78;100.00;101012.69;10537946;28;20310;-61
2022/01/01 15:27:24;;;;;;;109.03;51.63;;;;;;;8.90;99.76;101012.78;10541013;28;20612;-64
2022/01/01 15:37:56;;;;;;;7.70;2.30;;;;;;;8.82;100.00;101014.41;10545215;28;20630;-65
2022/01/01 15:43:02;;;;;;;5.00;2.07;;;;;;;8.73;100.00;101026.44;10545008;28;20293;-65
2022/01/01 15:48:06;;;;;;;5.87;2.33;;;;;;;8.75;100.00;101035.94;10545145;28;20199;-62
2022/01/01 15:53:12;;;;;;;5.13;2.10;;;;;;;8.65;100.00;101051.34;10544432;28;20202;-63
2022/01/01 15:58:20;;;;;;;12.20;5.67;;;;;;;8.64;100.00;101050.50;10544348;28;20218;-65
2022/01/01 16:03:32;;;;;;;9.47;3.23;;;;;;;8.54;100.00;101071.97;10544368;28;20215;-70
2022/01/01 16:08:54;;;;;;;12.30;5.40;;;;;;;8.48;100.00;101065.88;10460569;28;20553;-63
2022/01/01 16:13:59;;;;;;;8.33;3.13;;;;;;;8.26;100.00;101080.31;10469727;28;20192;-61
2022/01/01 16:19:07;;;;;;;7.43;3.20;;;;;;;8.11;100.00;101082.69;10501156;28;20215;-68
2022/01/01 16:24:13;;;;;;;11.37;3.30;;;;;;;8.05;100.00;101078.31;10499622;28;20222;-63
2022/01/01 16:29:17;;;;;;;9.67;3.03;;;;;;;8.02;100.00;101086.03;10498781;28;20181;-63
2022/01/01 16:34:21;;;;;;;36.73;19.03;;;;;;;8.03;100.00;101099.81;10461634;28;20326;-63
2022/01/01 16:39:26;;;;;;;11.90;3.50;;;;;;;8.01;100.00;101089.47;10493945;28;20204;-62
2022/01/01 16:44:34;;;;;;;13.70;5.20;;;;;;;8.00;100.00;101099.78;10497989;28;20661;-66
2022/01/01 16:49:40;;;;;;;7.67;3.50;;;;;;;7.87;100.00;101105.63;10497594;28;20227;-63
2022/01/01 16:54:46;;;;;;;8.50;3.20;;;;;;;7.72;100.00;101119.25;10499657;28;20311;-61
2022/01/01 17:00:00;;;;;;;23.07;11.10;;;;;;;7.49;100.00;101132.69;10499918;28;20220;-66
2022/01/01 17:05:06;;;;;;;9.83;2.60;;;;;;;7.43;100.00;101132.59;10512002;28;20712;-61
2022/01/01 17:10:15;;;;;;;21.43;9.67;;;;;;;7.43;100.00;101145.50;10500916;28;20216;-64
2022/01/01 17:15:20;;;;;;;16.33;3.37;;;;;;;7.51;100.00;101161.97;10499176;28;20325;-62
2022/01/01 17:20:29;;;;;;;8.83;2.00;;;;;;;7.40;100.00;101171.28;10496703;28;20259;-64
2022/01/01 17:25:35;;;;;;;9.07;2.17;;;;;;;7.29;100.00;101185.72;10498431;28;20240;-65
2022/01/01 17:30:42;;;;;;;9.70;2.20;;;;;;;7.17;100.00;101194.16;10496112;28;20218;-62
2022/01/01 17:41:15;;;;;;;7.47;2.60;;;;;;;7.31;100.00;101207.28;10488113;28;20246;-67
2022/01/01 17:46:19;;;;;;;7.13;1.97;;;;;;;7.34;100.00;101207.31;10497273;28;20322;-66
2022/01/01 17:51:25;;;;;;;6.37;1.27;;;;;;;7.42;99.78;101210.91;10497664;28;20220;-62
2022/01/01 17:56:30;;;;;;;7.43;1.63;;;;;;;7.49;98.17;101216.19;10497871;28;20227;-66
2022/01/01 18:01:34;;;;;;;4.03;1.10;;;;;;;7.38;96.92;101214.28;10497990;28;20338;-63
2022/01/01 18:06:37;;;;;;;4.80;1.13;;;;;;;7.31;97.73;101223.66;10497545;28;20311;-64
2022/01/01 18:11:53;;;;;;;4.20;1.63;;;;;;;7.35;97.23;101219.41;10508555;28;20223;-66
2022/01/01 18:16:58;;;;;;;5.27;1.40;;;;;;;7.37;95.10;101238.38;10460465;28;20259;-62
2022/01/01 18:22:04;;;;;;;3.87;1.13;;;;;;;7.30;95.14;101241.69;10455680;28;20236;-63
2022/01/01 18:27:15;;;;;;;5.77;1.33;;;;;;;7.32;94.92;101256.34;10455811;28;20362;-64
2022/01/01 18:32:19;;;;;;;4.30;1.47;;;;;;;7.27;95.71;101265.75;10455986;28;20223;-64
2022/01/01 18:37:27;;;;;;;3.87;1.10;;;;;;;7.24;96.47;101283.75;10455723;28;20238;-61
2022/01/01 18:42:33;;;;;;;6.40;2.33;;;;;;;7.25;98.59;101284.66;10455737;28;20625;-65
2022/01/01 18:47:36;;;;;;;20.00;3.87;;;;;;;7.35;97.21;101287.38;10455489;28;20217;-62
2022/01/01 18:52:46;;;;;;;7.50;2.13;;;;;;;7.30;98.05;101299.34;10455223;28;20228;-65
2022/01/01 18:57:58;;;;;;;4.87;1.80;;;;;;;7.28;99.08;101307.94;10454750;28;20209;-63
2022/01/01 19:03:06;;;;;;;5.63;1.70;;;;;;;7.27;99.55;101306.16;10456154;28;20289;-64
2022/01/01 19:08:13;;;;;;;5.57;1.60;;;;;;;7.11;100.00;101302.44;10537275;28;20572;-68
2022/01/01 19:13:21;;;;;;;6.00;1.90;;;;;;;6.98;100.00;101329.75;10544495;28;20227;-69
2022/01/01 19:18:26;;;;;;;4.80;1.60;;;;;;;6.86;100.00;101344.97;10545637;28;20661;-66
2022/01/01 19:23:31;;;;;;;5.53;1.40;;;;;;;6.69;100.00;101343.75;10545544;28;20225;-65
2022/01/01 19:28:41;;;;;;;5.67;2.07;;;;;;;6.80;100.00;101343.94;10545769;28;20223;-64
2022/01/01 19:33:47;;;;;;;4.60;1.47;;;;;;;6.65;100.00;101352.25;10545272;28;20224;-66
2022/01/01 19:38:50;;;;;;;6.90;1.63;;;;;;;6.63;100.00;101353.03;10545242;28;20225;-63
2022/01/01 19:44:08;;;;;;;5.13;1.37;;;;;;;6.63;100.00;101361.66;10544730;28;20573;-63
2022/01/01 19:49:13;;;;;;;6.43;1.53;;;;;;;6.52;100.00;101363.13;10544630;28;20302;-63
2022/01/01 19:54:16;;;;;;;4.47;1.40;;;;;;;6.53;100.00;101380.34;10544676;28;20223;-63
2022/01/01 19:59:21;;;;;;;5.13;1.50;;;;;;;6.58;100.00;101371.00;10544231;28;20212;-67
2022/01/01 20:04:24;;;;;;;6.43;1.40;;;;;;;6.54;100.00;101387.25;10536496;28;20212;-67
2022/01/01 20:09:27;;;;;;;5.93;1.33;;;;;;;6.45;100.00;101387.06;10501986;28;20220;-64
2022/01/01 20:14:33;;;;;;;4.03;1.40;;;;;;;6.50;100.00;101389.72;10501458;28;20219;-67
2022/01/01 20:19:37;;;;;;;2.93;1.00;;;;;;;6.38;100.00;101400.66;10501637;28;20239;-65
2022/01/01 20:24:41;;;;;;;4.07;1.17;;;;;;;6.41;100.00;101403.28;10501266;28;20614;-62
2022/01/01 20:29:45;;;;;;;3.70;1.20;;;;;;;6.43;100.00;101404.19;10501357;28;20226;-63
2022/01/01 20:34:48;;;;;;;4.00;1.10;;;;;;;6.35;100.00;101403.13;10500977;28;20663;-65
2022/01/01 20:39:52;;;;;;;3.93;1.10;;;;;;;6.23;100.00;101394.25;10500621;28;20237;-62
2022/01/01 20:44:57;;;;;;;3.27;0.90;;;;;;;6.24;100.00;101406.28;10500579;28;20223;-66
2022/01/01 20:50:01;;;;;;;2.97;1.00;;;;;;;6.22;100.00;101402.81;10500170;28;20338;-64
2022/01/01 20:55:07;;;;;;;3.83;1.27;;;;;;;6.31;100.00;101396.19;10501285;28;20219;-63
2022/01/01 21:00:13;;;;;;;2.50;0.97;;;;;;;6.20;100.00;101402.78;10500129;28;20230;-66
2022/01/01 21:05:21;;;;;;;5.20;1.20;;;;;;;6.26;100.00;101417.53;10514444;28;20223;-64
2022/01/01 21:10:24;;;;;;;4.23;1.27;;;;;;;6.34;100.00;101411.72;10528632;28;20218;-65
2022/01/01 21:15:29;;;;;;;3.77;1.70;;;;;;;6.25;100.00;101419.22;10499198;28;20220;-64
2022/01/01 21:20:36;;;;;;;5.53;1.97;;;;;;;6.21;100.00;101420.00;10498958;28;20223;-66
2022/01/01 21:25:57;;;;;;;4.90;2.00;;;;;;;6.22;100.00;101415.69;10498200;28;20223;-66
2022/01/01 21:31:01;;;;;;;6.70;2.47;;;;;;;6.14;100.00;101418.09;10498489;28;20220;-65
2022/01/01 21:36:05;;;;;;;6.70;2.47;;;;;;;6.12;100.00;101404.31;10498317;28;20685;-64
2022/01/01 21:41:09;;;;;;;6.57;3.07;;;;;;;6.17;100.00;101418.16;10498507;28;20212;-64
2022/01/01 21:46:14;;;;;;;8.07;2.80;;;;;;;6.17;100.00;101420.75;10497952;28;20224;-63
2022/01/01 21:51:18;;;;;;;7.13;2.53;;;;;;;6.16;100.00;101421.56;10498050;28;20553;-67
2022/01/01 21:56:23;;;;;;;6.87;3.10;;;;;;;6.19;100.00;101428.50;10497884;28;20228;-62
2022/01/01 22:01:27;;;;;;;5.90;3.10;;;;;;;6.16;100.00;101431.03;10497625;28;20212;-64
2022/01/01 22:06:31;;;;;;;8.07;3.10;;;;;;;6.04;100.00;101428.13;10522740;28;20786;-65
2022/01/01 22:11:35;;;;;;;6.07;2.80;;;;;;;6.02;100.00;101433.25;10539190;28;20233;-65
2022/01/01 22:16:39;;;;;;;8.03;3.03;;;;;;;6.08;100.00;101424.78;10539272;28;20685;-65
2022/01/01 22:21:44;;;;;;;6.93;2.93;;;;;;;6.00;100.00;101421.16;10538963;28;20242;-63
2022/01/01 22:26:47;;;;;;;6.50;2.87;;;;;;;5.88;100.00;101410.53;10539203;28;20643;-66
2022/01/01 22:31:51;;;;;;;6.03;2.43;;;;;;;5.83;100.00;101419.00;10538985;28;20276;-62
2022/01/01 22:36:55;;;;;;;7.43;2.40;;;;;;;5.90;100.00;101424.34;10543527;28;20219;-64
2022/01/01 22:41:59;;;;;;;8.37;2.47;;;;;;;5.87;100.00;101419.13;10547269;28;20298;-65
2022/01/01 22:47:04;;;;;;;6.27;2.30;;;;;;;5.84;100.00;101419.88;10547253;28;20219;-63
2022/01/01 22:52:07;;;;;;;11.33;2.93;;;;;;;5.82;100.00;101421.50;10547753;28;20294;-64
2022/01/01 22:57:10;;;;;;;4.90;2.40;;;;;;;5.88;100.00;101411.41;10546689;28;20219;-63
2022/01/01 23:02:15;;;;;;;5.70;2.50;;;;;;;5.85;100.00;101412.19;10546673;28;20247;-59
2022/01/01 23:07:18;;;;;;;6.37;2.37;;;;;;;5.99;100.00;101404.81;10514179;28;20566;-61
2022/01/01 23:12:22;;;;;;;5.53;2.10;;;;;;;5.87;100.00;101403.66;10504474;28;20303;-66
2022/01/01 23:17:35;;;;;;;7.27;2.80;;;;;;;5.80;100.00;101398.31;10503894;28;20230;-67
2022/01/01 23:22:39;;;;;;;7.57;2.83;;;;;;;5.73;100.00;101414.44;10503429;28;20619;-65
2022/01/01 23:27:43;;;;;;;6.30;2.90;;;;;;;5.75;100.00;101406.72;10503729;28;20315;-61
2022/01/01 23:32:50;;;;;;;7.90;3.00;;;;;;;5.69;100.00;101414.31;10503815;28;20226;-63
2022/01/01 23:37:54;;;;;;;7.57;2.83;;;;;;;5.67;100.00;101405.66;10503388;28;20302;-61
2022/01/01 23:42:57;;;;;;;6.80;2.97;;;;;;;5.61;100.00;101413.22;10503156;28;20238;-62